Time;durP1;ratioP1;P1;durP2;ratioP2;P2;SDS_P1;SDS_P2;PMS_P1;PMS_P2;Temp;Humidity;BMP_temperature;BMP_pressure;BME280_temperature;BME280_humidity;BME280_pressure;Samples;Min_cycle;Max_cycle;Signal;HPM_P1;HPM_P2
2023/09/29 00:01:27;;;;;;;;;2.00;2.00;;;;;;;;5091804;27;45451;-76
2023/09/29 00:03:53;;;;;;;;;3.75;3.75;;;;;;;;5073949;27;45669;-76
2023/09/29 00:06:19;;;;;;;;;2.50;2.50;;;;;;;;5071291;28;46005;-76
2023/09/29 00:08:45;;;;;;;;;3.00;2.00;;;;;;;;5078713;27;45252;-76
2023/09/29 00:11:12;;;;;;;;;2.75;2.75;;;;;;;;5078353;27;45305;-76
2023/09/29 00:13:38;;;;;;;;;2.00;1.00;;;;;;;;5079243;27;45321;-76
2023/09/29 00:16:03;;;;;;;;;3.25;2.00;;;;;;;;5078561;28;47258;-76
2023/09/29 00:18:30;;;;;;;;;2.00;2.00;;;;;;;;5077140;27;45747;-76
2023/09/29 00:20:55;;;;;;;;;2.50;1.50;;;;;;;;5079480;28;45367;-76
2023/09/29 00:23:20;;;;;;;;;3.00;3.00;;;;;;;;5077753;28;45570;-76
2023/09/29 00:25:45;;;;;;;;;4.25;3.00;;;;;;;;5079824;28;45574;-76
2023/09/29 00:28:10;;;;;;;;;2.50;2.50;;;;;;;;5079972;28;45418;-76
2023/09/29 00:30:36;;;;;;;;;2.75;2.25;;;;;;;;5081409;27;45630;-75
2023/09/29 00:33:03;;;;;;;;;2.00;2.00;;;;;;;;5080085;28;45335;-75
2023/09/29 00:35:28;;;;;;;;;0.00;0.00;;;;;;;;5082201;27;45364;-75
2023/09/29 00:37:54;;;;;;;;;2.00;2.00;;;;;;;;5081166;28;45484;-74
2023/09/29 00:40:19;;;;;;;;;3.00;3.00;;;;;;;;5081271;27;45378;-74
2023/09/29 00:42:46;;;;;;;;;2.50;1.50;;;;;;;;5082416;27;45394;-75
2023/09/29 00:45:12;;;;;;;;;3.25;2.00;;;;;;;;5079992;27;45658;-75
2023/09/29 00:47:38;;;;;;;;;4.00;4.00;;;;;;;;5081836;27;45276;-75
2023/09/29 00:50:05;;;;;;;;;2.00;2.00;;;;;;;;5080135;28;45653;-74
2023/09/29 00:52:31;;;;;;;;;5.00;2.00;;;;;;;;5079621;28;45490;-75
2023/09/29 00:54:56;;;;;;;;;3.00;3.00;;;;;;;;5081930;28;46195;-75
2023/09/29 00:57:21;;;;;;;;;2.00;2.00;;;;;;;;5078841;28;45345;-75
2023/09/29 00:59:47;;;;;;;;;4.00;4.00;;;;;;;;5069831;27;45830;-76
2023/09/29 01:02:14;;;;;;;;;2.00;2.00;;;;;;;;5078638;28;45462;-76
2023/09/29 01:04:40;;;;;;;;;2.00;2.00;;;;;;;;5081265;27;46123;-76
2023/09/29 01:07:06;;;;;;;;;3.00;2.00;;;;;;;;5089229;27;45290;-76
2023/09/29 01:09:31;;;;;;;;;3.00;3.00;;;;;;;;5083427;27;45488;-76
2023/09/29 01:11:58;;;;;;;;;3.00;3.00;;;;;;;;5083073;27;45259;-76
2023/09/29 01:14:25;;;;;;;;;2.50;2.50;;;;;;;;5088393;27;45421;-75
2023/09/29 01:16:50;;;;;;;;;2.00;2.00;;;;;;;;5080747;27;45275;-75
2023/09/29 01:19:17;;;;;;;;;5.50;2.75;;;;;;;;5092083;27;45586;-75
2023/09/29 01:21:46;;;;;;;;;3.50;3.50;;;;;;;;5090082;27;45945;-75
2023/09/29 01:24:11;;;;;;;;;3.75;2.75;;;;;;;;5086990;27;45680;-75
2023/09/29 01:26:36;;;;;;;;;2.25;2.00;;;;;;;;5079249;27;45432;-76
2023/09/29 01:29:02;;;;;;;;;3.75;3.50;;;;;;;;5092907;27;45527;-75
2023/09/29 01:31:27;;;;;;;;;2.00;2.00;;;;;;;;5087918;27;45465;-75
2023/09/29 01:33:52;;;;;;;;;3.75;3.00;;;;;;;;5082899;27;46358;-75
2023/09/29 01:36:17;;;;;;;;;3.00;3.00;;;;;;;;5081711;27;45406;-75
2023/09/29 01:38:43;;;;;;;;;2.00;2.00;;;;;;;;5089280;27;45308;-75
2023/09/29 01:41:09;;;;;;;;;3.75;2.00;;;;;;;;5076648;27;45713;-75
2023/09/29 01:43:34;;;;;;;;;2.50;2.00;;;;;;;;5078037;28;45983;-75
2023/09/29 01:46:00;;;;;;;;;5.75;3.25;;;;;;;;5086058;27;45453;-75
2023/09/29 01:48:25;;;;;;;;;4.25;3.25;;;;;;;;5082685;27;45458;-75
2023/09/29 01:50:50;;;;;;;;;2.75;2.75;;;;;;;;5084597;27;46555;-75
2023/09/29 01:53:15;;;;;;;;;2.25;2.00;;;;;;;;5081060;27;46566;-75
2023/09/29 01:55:41;;;;;;;;;2.25;2.25;;;;;;;;5082144;27;45519;-75
2023/09/29 01:58:06;;;;;;;;;2.00;2.00;;;;;;;;5085445;27;45458;-75
2023/09/29 02:00:31;;;;;;;;;2.00;2.00;;;;;;;;5080217;27;45414;-75
2023/09/29 02:02:59;;;;;;;;;3.00;2.00;;;;;;;;5080822;27;46007;-74
2023/09/29 02:05:24;;;;;;;;;2.50;2.25;;;;;;;;5086890;27;45440;-75
2023/09/29 02:07:50;;;;;;;;;4.00;3.00;;;;;;;;5083862;27;45367;-75
2023/09/29 02:10:20;;;;;;;;;2.25;2.25;;;;;;;;5086846;27;45377;-76
2023/09/29 02:12:54;;;;;;;;;2.25;2.25;;;;;;;;5086601;27;46589;-75
2023/09/29 02:15:19;;;;;;;;;3.75;2.00;;;;;;;;5086739;27;45856;-75
2023/09/29 02:17:47;;;;;;;;;2.50;2.50;;;;;;;;5083752;27;45337;-75
2023/09/29 02:20:15;;;;;;;;;2.00;1.75;;;;;;;;5080180;27;45529;-76
2023/09/29 02:22:40;;;;;;;;;2.00;2.00;;;;;;;;5090744;27;45938;-75
2023/09/29 02:25:06;;;;;;;;;1.00;1.00;;;;;;;;5086190;27;45340;-75
2023/09/29 02:27:31;;;;;;;;;3.00;2.00;;;;;;;;5092133;27;45382;-75
2023/09/29 02:29:56;;;;;;;;;1.50;1.50;;;;;;;;5087848;27;45214;-75
2023/09/29 02:32:22;;;;;;;;;1.00;1.00;;;;;;;;5089168;27;46221;-75
2023/09/29 02:34:47;;;;;;;;;3.25;1.75;;;;;;;;5087356;27;45271;-76
2023/09/29 02:37:12;;;;;;;;;1.00;1.00;;;;;;;;5086631;27;45431;-75
2023/09/29 02:39:37;;;;;;;;;1.25;1.25;;;;;;;;5087432;27;46021;-75
2023/09/29 02:42:02;;;;;;;;;1.00;1.00;;;;;;;;5084089;27;45137;-75
2023/09/29 02:44:31;;;;;;;;;1.00;1.00;;;;;;;;5084529;27;45419;-75
2023/09/29 02:46:57;;;;;;;;;2.00;2.00;;;;;;;;5090690;27;45462;-75
2023/09/29 02:49:22;;;;;;;;;1.50;1.00;;;;;;;;5083153;27;45403;-75
2023/09/29 02:51:48;;;;;;;;;1.00;1.00;;;;;;;;5086855;27;45491;-75
2023/09/29 02:54:13;;;;;;;;;0.50;0.50;;;;;;;;5077260;27;45298;-75
2023/09/29 02:56:38;;;;;;;;;1.00;1.00;;;;;;;;5083293;27;45939;-75
2023/09/29 02:59:05;;;;;;;;;0.75;0.75;;;;;;;;5088258;27;45572;-76
2023/09/29 03:01:30;;;;;;;;;1.00;1.00;;;;;;;;5090551;27;47272;-75
2023/09/29 03:03:58;;;;;;;;;0.25;0.00;;;;;;;;5074700;27;45387;-75
2023/09/29 03:06:24;;;;;;;;;1.00;1.00;;;;;;;;5074523;27;45400;-75
2023/09/29 03:08:51;;;;;;;;;2.00;1.00;;;;;;;;5088615;27;45310;-75
2023/09/29 03:11:16;;;;;;;;;2.75;1.00;;;;;;;;5093924;27;46324;-76
2023/09/29 03:13:41;;;;;;;;;1.00;1.00;;;;;;;;5086555;27;45256;-75
2023/09/29 03:16:07;;;;;;;;;2.00;1.75;;;;;;;;5076963;27;45364;-75
2023/09/29 03:18:34;;;;;;;;;0.00;0.00;;;;;;;;5084913;27;45719;-75
2023/09/29 03:21:00;;;;;;;;;1.00;1.00;;;;;;;;5086127;27;45323;-75
2023/09/29 03:23:27;;;;;;;;;0.00;0.00;;;;;;;;5088675;27;45306;-74
2023/09/29 03:25:54;;;;;;;;;1.00;1.00;;;;;;;;5089258;27;45389;-74
2023/09/29 03:28:20;;;;;;;;;1.25;1.00;;;;;;;;5088832;27;45496;-74
2023/09/29 03:30:45;;;;;;;;;1.00;1.00;;;;;;;;5091937;27;45722;-75
2023/09/29 03:33:10;;;;;;;;;1.00;1.00;;;;;;;;5087066;27;45642;-75
2023/09/29 03:35:36;;;;;;;;;2.25;1.00;;;;;;;;5077632;27;47585;-75
2023/09/29 03:38:04;;;;;;;;;2.00;1.00;;;;;;;;5092553;27;45384;-75
2023/09/29 03:40:30;;;;;;;;;0.50;0.50;;;;;;;;5089152;27;47134;-74
2023/09/29 03:42:55;;;;;;;;;1.25;1.25;;;;;;;;5080160;27;45341;-75
2023/09/29 03:45:21;;;;;;;;;1.00;1.00;;;;;;;;5089488;27;45658;-74
2023/09/29 03:47:46;;;;;;;;;0.75;0.75;;;;;;;;5089584;27;45271;-75
2023/09/29 03:50:12;;;;;;;;;2.00;2.00;;;;;;;;5071577;27;47868;-75
2023/09/29 03:52:37;;;;;;;;;1.50;1.50;;;;;;;;5094071;27;45594;-75
2023/09/29 03:55:03;;;;;;;;;0.25;0.00;;;;;;;;5096024;27;45350;-74
2023/09/29 03:57:28;;;;;;;;;2.00;1.00;;;;;;;;5091498;27;45164;-75
2023/09/29 03:59:53;;;;;;;;;0.00;0.00;;;;;;;;5092935;27;46119;-75
2023/09/29 04:02:20;;;;;;;;;1.00;1.00;;;;;;;;5094231;27;45356;-75
2023/09/29 04:04:45;;;;;;;;;1.00;1.00;;;;;;;;5076661;28;45578;-74
2023/09/29 04:07:11;;;;;;;;;0.50;0.50;;;;;;;;5084945;27;45382;-75
2023/09/29 04:09:36;;;;;;;;;3.00;1.25;;;;;;;;5086080;27;45410;-75
2023/09/29 04:12:01;;;;;;;;;0.50;0.50;;;;;;;;5093279;27;45299;-75
2023/09/29 04:14:27;;;;;;;;;1.00;1.00;;;;;;;;5096668;27;45309;-75
2023/09/29 04:16:52;;;;;;;;;1.25;1.25;;;;;;;;5089798;27;45312;-75
2023/09/29 04:19:17;;;;;;;;;1.75;1.00;;;;;;;;5085379;27;45502;-75
2023/09/29 04:21:44;;;;;;;;;1.00;1.00;;;;;;;;5089499;27;45331;-75
2023/09/29 04:24:09;;;;;;;;;1.75;1.75;;;;;;;;5078728;27;45396;-75
2023/09/29 04:26:35;;;;;;;;;1.75;1.75;;;;;;;;5079273;27;45215;-75
2023/09/29 04:29:00;;;;;;;;;2.50;1.00;;;;;;;;5066629;27;47470;-75
2023/09/29 04:31:25;;;;;;;;;3.75;2.00;;;;;;;;5065920;27;45216;-75
2023/09/29 04:33:50;;;;;;;;;1.25;1.25;;;;;;;;5062428;27;45411;-75
2023/09/29 04:36:16;;;;;;;;;1.50;1.00;;;;;;;;5066253;27;45290;-74
2023/09/29 04:38:41;;;;;;;;;1.00;1.00;;;;;;;;5080191;27;46117;-74
2023/09/29 04:41:06;;;;;;;;;1.00;1.00;;;;;;;;5078954;27;45208;-76
2023/09/29 04:43:32;;;;;;;;;2.25;2.00;;;;;;;;5069910;27;45269;-76
2023/09/29 04:45:57;;;;;;;;;2.25;2.25;;;;;;;;5074307;27;45267;-76
2023/09/29 04:48:22;;;;;;;;;3.00;2.75;;;;;;;;5080592;27;45643;-48
2023/09/29 04:50:47;;;;;;;;;2.00;2.00;;;;;;;;5088094;27;45169;-50
2023/09/29 04:53:12;;;;;;;;;4.00;2.50;;;;;;;;5079608;27;45403;-49
2023/09/29 04:55:38;;;;;;;;;3.00;1.75;;;;;;;;5078255;27;45495;-47
2023/09/29 04:58:03;;;;;;;;;3.50;0.00;;;;;;;;5079373;27;45994;-50
2023/09/29 05:00:29;;;;;;;;;1.50;1.50;;;;;;;;5076369;27;45631;-47
2023/09/29 05:02:54;;;;;;;;;2.50;1.00;;;;;;;;5075756;27;45529;-46
2023/09/29 05:05:19;;;;;;;;;5.50;2.75;;;;;;;;5070535;27;45367;-47
2023/09/29 05:07:45;;;;;;;;;2.75;2.00;;;;;;;;5075676;27;46440;-50
2023/09/29 05:10:16;;;;;;;;;3.00;2.75;;;;;;;;5071172;27;45500;-47
2023/09/29 05:12:43;;;;;;;;;4.50;0.75;;;;;;;;5078163;27;45476;-47
2023/09/29 05:15:09;;;;;;;;;1.00;1.00;;;;;;;;5079576;27;45978;-50
2023/09/29 05:17:34;;;;;;;;;3.75;3.25;;;;;;;;5086587;27;46374;-51
2023/09/29 05:20:00;;;;;;;;;4.00;3.00;;;;;;;;5086809;27;45866;-50
2023/09/29 05:22:25;;;;;;;;;4.50;1.75;;;;;;;;5079771;28;45922;-47
2023/09/29 05:24:50;;;;;;;;;5.00;3.00;;;;;;;;5076635;27;45551;-48
2023/09/29 05:27:15;;;;;;;;;5.00;3.00;;;;;;;;5080293;27;45997;-48
2023/09/29 05:29:41;;;;;;;;;4.00;2.33;;;;;;;;5075723;27;45406;-49
2023/09/29 05:32:06;;;;;;;;;5.00;2.00;;;;;;;;5075396;27;45448;-47
2023/09/29 05:34:31;;;;;;;;;3.25;3.25;;;;;;;;5078485;27;45358;-51
2023/09/29 05:36:56;;;;;;;;;3.50;1.75;;;;;;;;5075248;27;45543;-48
2023/09/29 05:39:23;;;;;;;;;5.00;2.25;;;;;;;;5077556;27;45315;-49
2023/09/29 05:41:48;;;;;;;;;2.00;2.00;;;;;;;;5078169;27;45520;-48
2023/09/29 05:44:13;;;;;;;;;6.00;4.00;;;;;;;;5074073;27;45292;-48
2023/09/29 05:46:38;;;;;;;;;3.33;3.33;;;;;;;;5079921;28;46215;-47
2023/09/29 05:49:04;;;;;;;;;5.00;3.33;;;;;;;;5074789;28;45520;-49
2023/09/29 05:51:29;;;;;;;;;8.33;1.67;;;;;;;;5081324;28;45494;-48
2023/09/29 05:53:54;;;;;;;;;2.75;2.75;;;;;;;;5070631;28;45512;-48
2023/09/29 05:56:19;;;;;;;;;6.33;3.33;;;;;;;;5068256;28;45832;-50
2023/09/29 05:58:45;;;;;;;;;5.33;4.33;;;;;;;;5080720;27;45448;-47
2023/09/29 06:01:11;;;;;;;;;4.50;4.50;;;;;;;;5078575;28;45340;-46
2023/09/29 06:03:37;;;;;;;;;5.33;3.67;;;;;;;;5078102;27;45529;-47
2023/09/29 06:06:03;;;;;;;;;3.50;3.50;;;;;;;;5080121;28;46162;-44
2023/09/29 06:08:28;;;;;;;;;4.00;4.00;;;;;;;;5079965;28;45446;-47
2023/09/29 06:10:53;;;;;;;;;5.00;4.00;;;;;;;;5079487;27;45406;-46
2023/09/29 06:13:18;;;;;;;;;9.00;4.50;;;;;;;;5082464;27;45616;-46
2023/09/29 06:15:43;;;;;;;;;6.67;4.67;;;;;;;;5072919;28;45450;-48
2023/09/29 06:18:08;;;;;;;;;7.00;3.25;;;;;;;;5068178;27;45339;-48
2023/09/29 06:20:34;;;;;;;;;9.00;6.00;;;;;;;;5077771;28;45355;-47
2023/09/29 06:22:59;;;;;;;;;5.75;4.00;;;;;;;;5076206;28;45339;-50
2023/09/29 06:25:24;;;;;;;;;6.67;4.00;;;;;;;;5073514;28;46223;-49
2023/09/29 06:27:49;;;;;;;;;3.50;3.00;;;;;;;;5078847;28;45486;-50
2023/09/29 06:30:14;;;;;;;;;5.67;4.33;;;;;;;;5076176;28;45473;-48
2023/09/29 06:32:41;;;;;;;;;5.00;4.00;;;;;;;;5076487;28;45543;-47
2023/09/29 06:35:06;;;;;;;;;5.50;3.00;;;;;;;;5077043;28;46234;-49
2023/09/29 06:37:31;;;;;;;;;4.67;4.00;;;;;;;;5078796;28;46688;-48
2023/09/29 06:39:56;;;;;;;;;4.25;4.25;;;;;;;;5076476;28;45325;-47
2023/09/29 06:42:22;;;;;;;;;4.75;4.50;;;;;;;;5080352;27;45277;-49
2023/09/29 06:44:47;;;;;;;;;8.00;6.50;;;;;;;;5077237;28;46256;-50
2023/09/29 06:47:12;;;;;;;;;10.00;7.00;;;;;;;;5079559;27;45344;-48
2023/09/29 06:49:37;;;;;;;;;8.00;5.00;;;;;;;;5080202;27;45788;-45
2023/09/29 06:52:03;;;;;;;;;6.75;4.00;;;;;;;;5071767;28;45323;-50
2023/09/29 06:54:28;;;;;;;;;11.00;5.00;;;;;;;;5078244;28;46766;-47
2023/09/29 06:56:53;;;;;;;;;4.67;4.67;;;;;;;;5079725;28;45354;-45
2023/09/29 06:59:18;;;;;;;;;5.67;4.00;;;;;;;;5069740;27;45537;-45
2023/09/29 07:01:43;;;;;;;;;5.00;3.00;;;;;;;;5077879;27;45440;-49
2023/09/29 07:04:10;;;;;;;;;1.00;1.00;;;;;;;;5077843;28;46169;-47
2023/09/29 07:06:35;;;;;;;;;8.00;3.00;;;;;;;;5072990;28;45322;-50
2023/09/29 07:09:01;;;;;;;;;6.00;5.00;;;;;;;;5067128;28;45480;-49
2023/09/29 07:11:27;;;;;;;;;5.00;3.75;;;;;;;;5073598;27;45362;-47
2023/09/29 07:13:52;;;;;;;;;6.00;2.00;;;;;;;;5069376;28;46091;-50
2023/09/29 07:16:18;;;;;;;;;7.75;5.75;;;;;;;;5078268;27;45500;-48
2023/09/29 07:18:43;;;;;;;;;5.67;5.67;;;;;;;;5078001;28;45319;-49
2023/09/29 07:21:08;;;;;;;;;2.50;2.50;;;;;;;;5073102;28;45568;-49
2023/09/29 07:23:34;;;;;;;;;4.00;3.33;;;;;;;;5063267;28;46158;-50
2023/09/29 07:26:00;;;;;;;;;6.25;4.00;;;;;;;;5072342;27;45382;-48
2023/09/29 07:28:25;;;;;;;;;2.25;2.25;;;;;;;;5073548;28;45348;-49
2023/09/29 07:30:53;;;;;;;;;3.75;3.75;;;;;;;;5068596;28;45315;-49
2023/09/29 07:33:18;;;;;;;;;5.00;3.00;;;;;;;;5077690;28;46409;-48
2023/09/29 07:35:44;;;;;;;;;6.25;3.00;;;;;;;;5072573;28;45437;-49
2023/09/29 07:38:10;;;;;;;;;2.00;2.00;;;;;;;;5076117;28;45390;-47
2023/09/29 07:40:35;;;;;;;;;5.00;3.75;;;;;;;;5074020;28;45580;-48
2023/09/29 07:43:00;;;;;;;;;2.25;1.25;;;;;;;;5079080;28;45609;-50
2023/09/29 07:45:26;;;;;;;;;4.50;3.00;;;;;;;;5078612;28;45426;-51
2023/09/29 07:47:51;;;;;;;;;4.75;2.75;;;;;;;;5077820;28;45335;-48
2023/09/29 07:50:17;;;;;;;;;7.00;2.50;;;;;;;;5077080;28;45347;-49
2023/09/29 07:52:42;;;;;;;;;5.00;2.75;;;;;;;;5077609;27;46113;-50
2023/09/29 07:55:09;;;;;;;;;4.50;2.50;;;;;;;;5077281;28;45334;-47
2023/09/29 07:57:35;;;;;;;;;2.67;2.67;;;;;;;;5077095;28;45366;-48
2023/09/29 08:00:00;;;;;;;;;1.00;1.00;;;;;;;;5077623;27;45410;-47
2023/09/29 08:02:26;;;;;;;;;2.00;2.00;;;;;;;;5075670;27;45663;-47
2023/09/29 08:04:52;;;;;;;;;3.00;1.25;;;;;;;;5085683;27;45345;-50
2023/09/29 08:07:17;;;;;;;;;2.00;1.00;;;;;;;;5087672;27;45505;-48
2023/09/29 08:09:43;;;;;;;;;2.00;2.00;;;;;;;;5078306;27;45810;-49
2023/09/29 08:12:08;;;;;;;;;1.75;1.00;;;;;;;;5083912;27;45553;-47
2023/09/29 08:14:33;;;;;;;;;3.25;1.00;;;;;;;;5081401;27;45378;-48
2023/09/29 08:16:58;;;;;;;;;1.75;1.00;;;;;;;;5073061;27;45435;-47
2023/09/29 08:19:24;;;;;;;;;1.00;1.00;;;;;;;;5075134;27;45496;-48
2023/09/29 08:21:49;;;;;;;;;1.50;1.00;;;;;;;;5084112;27;45476;-49
2023/09/29 08:24:14;;;;;;;;;19.67;16.67;;;;;;;;5085016;27;45388;-49
2023/09/29 08:26:40;;;;;;;;;5.75;3.00;;;;;;;;5078140;27;45196;-75
2023/09/29 08:29:06;;;;;;;;;0.50;0.50;;;;;;;;5084001;27;45358;-74
2023/09/29 08:31:31;;;;;;;;;0.50;0.50;;;;;;;;5084427;27;46261;-75
2023/09/29 08:33:56;;;;;;;;;24.00;19.00;;;;;;;;5084822;27;45562;-48
2023/09/29 08:36:22;;;;;;;;;5.25;4.00;;;;;;;;5086212;27;45492;-46
2023/09/29 08:38:47;;;;;;;;;1.00;1.00;;;;;;;;5082180;27;45374;-45
2023/09/29 08:41:14;;;;;;;;;1.00;1.00;;;;;;;;5078626;27;47867;-49
2023/09/29 08:43:39;;;;;;;;;0.00;0.00;;;;;;;;5079960;27;45716;-46
2023/09/29 08:46:06;;;;;;;;;0.00;0.00;;;;;;;;5084089;27;45357;-48
2023/09/29 08:48:35;;;;;;;;;1.00;0.00;;;;;;;;5086802;27;45801;-47
2023/09/29 08:51:01;;;;;;;;;0.00;0.00;;;;;;;;5061522;27;47108;-50
2023/09/29 08:53:28;;;;;;;;;0.25;0.00;;;;;;;;5081436;28;45409;-48
2023/09/29 08:55:56;;;;;;;;;0.00;0.00;;;;;;;;5078431;28;45606;-50
2023/09/29 08:58:23;;;;;;;;;0.00;0.00;;;;;;;;5080452;27;45358;-49
2023/09/29 09:00:49;;;;;;;;;0.00;0.00;;;;;;;;5077582;28;45329;-45
2023/09/29 09:03:14;;;;;;;;;0.00;0.00;;;;;;;;5074710;28;45518;-49
2023/09/29 09:05:39;;;;;;;;;1.50;0.00;;;;;;;;5077855;28;45509;-47
2023/09/29 09:08:05;;;;;;;;;0.00;0.00;;;;;;;;5080797;27;45332;-47
2023/09/29 09:10:31;;;;;;;;;0.00;0.00;;;;;;;;5067094;28;45487;-47
2023/09/29 09:12:56;;;;;;;;;0.00;0.00;;;;;;;;5073959;28;45424;-47
2023/09/29 09:15:24;;;;;;;;;1.50;0.00;;;;;;;;5066262;27;45248;-49
2023/09/29 09:17:50;;;;;;;;;0.00;0.00;;;;;;;;5077005;28;45623;-49
2023/09/29 09:20:15;;;;;;;;;0.00;0.00;;;;;;;;5076269;28;45726;-50
2023/09/29 09:22:41;;;;;;;;;1.00;0.00;;;;;;;;5064923;28;46309;-49
2023/09/29 09:25:08;;;;;;;;;0.00;0.00;;;;;;;;5072148;27;45629;-48
2023/09/29 09:27:40;;;;;;;;;0.00;0.00;;;;;;;;5075777;28;45656;-48
2023/09/29 09:30:06;;;;;;;;;1.00;0.00;;;;;;;;5072698;28;46081;-47
2023/09/29 09:32:31;;;;;;;;;0.00;0.00;;;;;;;;5080278;28;45485;-45
2023/09/29 09:34:57;;;;;;;;;0.00;0.00;;;;;;;;5074256;28;45466;-46
2023/09/29 09:37:26;;;;;;;;;0.00;0.00;;;;;;;;5075377;28;45401;-47
2023/09/29 09:39:53;;;;;;;;;0.00;0.00;;;;;;;;5068175;28;46327;-46
2023/09/29 09:42:20;;;;;;;;;0.00;0.00;;;;;;;;5078979;28;45404;-47
2023/09/29 09:44:45;;;;;;;;;0.25;0.00;;;;;;;;5080691;28;45490;-47
2023/09/29 09:47:12;;;;;;;;;0.00;0.00;;;;;;;;5079174;28;45364;-48
2023/09/29 09:49:44;;;;;;;;;0.00;0.00;;;;;;;;5080723;28;45514;-50
2023/09/29 09:52:12;;;;;;;;;0.00;0.00;;;;;;;;5078229;28;45598;-46
2023/09/29 09:54:54;;;;;;;;;0.00;0.00;;;;;;;;5072986;28;45471;-49
2023/09/29 09:57:35;;;;;;;;;0.00;0.00;;;;;;;;5068697;28;45460;-50
2023/09/29 10:00:07;;;;;;;;;0.00;0.00;;;;;;;;5068611;28;46090;-48
2023/09/29 10:02:35;;;;;;;;;0.00;0.00;;;;;;;;5075883;28;45373;-48
2023/09/29 10:05:02;;;;;;;;;0.00;0.00;;;;;;;;5078526;28;45524;-46
2023/09/29 10:07:27;;;;;;;;;0.00;0.00;;;;;;;;5077295;28;45524;-47
2023/09/29 10:09:52;;;;;;;;;0.00;0.00;;;;;;;;5068645;28;46296;-48
2023/09/29 10:12:27;;;;;;;;;0.00;0.00;;;;;;;;5080562;28;45280;-51
2023/09/29 10:14:53;;;;;;;;;1.00;0.00;;;;;;;;5064846;28;45422;-48
2023/09/29 10:17:20;;;;;;;;;1.00;1.00;;;;;;;;5070783;28;45467;-48
2023/09/29 10:19:48;;;;;;;;;1.00;1.00;;;;;;;;5074260;28;45451;-45
2023/09/29 10:22:20;;;;;;;;;1.50;1.00;;;;;;;;5072641;28;45405;-45
2023/09/29 10:24:46;;;;;;;;;3.00;1.00;;;;;;;;5082295;27;46293;-46
2023/09/29 10:27:13;;;;;;;;;1.00;1.00;;;;;;;;5072450;27;45398;-46
2023/09/29 10:29:39;;;;;;;;;1.50;1.50;;;;;;;;5080394;27;46168;-48
2023/09/29 10:32:20;;;;;;;;;2.25;1.00;;;;;;;;5069004;27;45479;-48
2023/09/29 10:34:46;;;;;;;;;1.00;1.00;;;;;;;;5073740;27;45330;-47
2023/09/29 10:37:11;;;;;;;;;1.50;1.00;;;;;;;;5077463;27;45825;-45
2023/09/29 10:39:39;;;;;;;;;2.00;1.00;;;;;;;;5081174;27;45492;-46
2023/09/29 10:42:14;;;;;;;;;0.25;0.00;;;;;;;;5076101;28;45576;-49
2023/09/29 10:44:44;;;;;;;;;2.00;1.75;;;;;;;;5078480;27;45471;-46
2023/09/29 10:47:13;;;;;;;;;1.00;0.00;;;;;;;;5079425;27;45756;-45
2023/09/29 10:49:40;;;;;;;;;0.75;0.75;;;;;;;;5085622;27;46230;-44
2023/09/29 10:52:15;;;;;;;;;0.50;0.50;;;;;;;;5071249;27;45240;-47
2023/09/29 10:54:41;;;;;;;;;1.00;1.00;;;;;;;;5077574;27;45496;-47
2023/09/29 10:57:08;;;;;;;;;2.50;1.00;;;;;;;;5075096;27;45308;-45
2023/09/29 10:59:33;;;;;;;;;0.25;0.25;;;;;;;;5072537;28;46405;-47
2023/09/29 11:01:58;;;;;;;;;1.50;0.50;;;;;;;;5081609;27;45306;-48
2023/09/29 11:04:23;;;;;;;;;0.00;0.00;;;;;;;;5081255;27;45286;-45
2023/09/29 11:06:52;;;;;;;;;2.00;2.00;;;;;;;;5082738;27;45341;-48
2023/09/29 11:09:19;;;;;;;;;1.00;1.00;;;;;;;;5070214;27;46358;-48
2023/09/29 11:11:45;;;;;;;;;3.75;2.00;;;;;;;;5072284;27;45405;-46
2023/09/29 11:14:10;;;;;;;;;1.00;1.00;;;;;;;;5073791;27;46027;-45
2023/09/29 11:16:36;;;;;;;;;1.00;1.00;;;;;;;;5076107;27;45594;-46
2023/09/29 11:19:12;;;;;;;;;2.00;1.50;;;;;;;;5074593;27;45426;-47
2023/09/29 11:21:38;;;;;;;;;3.75;1.00;;;;;;;;5070373;27;45363;-46
2023/09/29 11:24:13;;;;;;;;;1.00;1.00;;;;;;;;5073688;28;45557;-47
2023/09/29 11:26:46;;;;;;;;;1.50;1.50;;;;;;;;5078117;27;45291;-50
2023/09/29 11:29:21;;;;;;;;;2.50;0.25;;;;;;;;5073501;27;46446;-49
2023/09/29 11:31:47;;;;;;;;;0.00;0.00;;;;;;;;5074724;27;45331;-49
2023/09/29 11:34:14;;;;;;;;;0.00;0.00;;;;;;;;5081929;27;45579;-51
2023/09/29 11:36:40;;;;;;;;;2.50;1.00;;;;;;;;5079280;28;45306;-49
2023/09/29 11:39:07;;;;;;;;;2.00;1.00;;;;;;;;5076158;27;45437;-49
2023/09/29 11:41:33;;;;;;;;;1.00;0.00;;;;;;;;5076745;28;45578;-51
2023/09/29 11:43:58;;;;;;;;;3.00;2.00;;;;;;;;5073715;27;45486;-51
2023/09/29 11:46:24;;;;;;;;;1.25;0.25;;;;;;;;5080271;27;45402;-49
2023/09/29 11:48:49;;;;;;;;;1.00;0.00;;;;;;;;5077518;27;46429;-51
2023/09/29 11:51:14;;;;;;;;;0.00;0.00;;;;;;;;5075004;27;45434;-51
2023/09/29 11:53:40;;;;;;;;;1.00;1.00;;;;;;;;5072712;27;45500;-50
2023/09/29 11:56:07;;;;;;;;;2.50;2.00;;;;;;;;5070758;28;47379;-52
2023/09/29 11:58:33;;;;;;;;;1.00;1.00;;;;;;;;5075590;27;46712;-51
2023/09/29 12:01:00;;;;;;;;;3.00;1.00;;;;;;;;5079726;27;45732;-50
2023/09/29 12:03:27;;;;;;;;;3.00;1.00;;;;;;;;5079235;27;46819;-52
2023/09/29 12:05:53;;;;;;;;;2.00;1.50;;;;;;;;5075795;28;45595;-51
2023/09/29 12:08:19;;;;;;;;;2.00;2.00;;;;;;;;5080594;27;45410;-51
2023/09/29 12:10:44;;;;;;;;;2.00;0.75;;;;;;;;5076666;27;45707;-48
2023/09/29 12:13:12;;;;;;;;;2.25;0.25;;;;;;;;5081155;27;45515;-51
2023/09/29 12:15:37;;;;;;;;;1.00;1.00;;;;;;;;5074546;27;45664;-48
2023/09/29 12:18:02;;;;;;;;;2.50;2.00;;;;;;;;5077471;27;46176;-48
2023/09/29 12:20:28;;;;;;;;;3.00;1.75;;;;;;;;5074799;27;46910;-51
2023/09/29 12:22:55;;;;;;;;;1.00;1.00;;;;;;;;5069773;27;45732;-52
2023/09/29 12:25:20;;;;;;;;;1.75;1.75;;;;;;;;5082874;27;45548;-50
2023/09/29 12:27:46;;;;;;;;;1.50;1.50;;;;;;;;5069645;28;46176;-52
2023/09/29 12:30:17;;;;;;;;;5.75;3.00;;;;;;;;5074556;27;45382;-51
2023/09/29 12:32:42;;;;;;;;;4.00;1.00;;;;;;;;5072371;28;45474;-52
2023/09/29 12:35:09;;;;;;;;;3.00;2.00;;;;;;;;5070567;28;45555;-52
2023/09/29 12:37:35;;;;;;;;;2.00;1.25;;;;;;;;5059812;28;45807;-50
2023/09/29 12:40:00;;;;;;;;;1.00;1.00;;;;;;;;5069703;28;45456;-52
2023/09/29 12:42:28;;;;;;;;;1.00;1.00;;;;;;;;5073965;28;45668;-51
2023/09/29 12:44:53;;;;;;;;;2.25;2.00;;;;;;;;5074528;28;45612;-50
2023/09/29 12:47:18;;;;;;;;;2.25;2.00;;;;;;;;5070860;27;46313;-51
2023/09/29 12:49:43;;;;;;;;;3.00;1.00;;;;;;;;5071242;28;45645;-48
2023/09/29 12:52:09;;;;;;;;;1.50;1.50;;;;;;;;5075047;28;45220;-51
2023/09/29 12:54:38;;;;;;;;;2.50;1.50;;;;;;;;5077496;27;45326;-52
2023/09/29 12:57:03;;;;;;;;;1.75;1.50;;;;;;;;5074629;27;45808;-51
2023/09/29 12:59:29;;;;;;;;;6.25;3.25;;;;;;;;5077665;28;45452;-51
2023/09/29 13:01:54;;;;;;;;;1.00;1.00;;;;;;;;5075657;28;45528;-52
2023/09/29 13:04:25;;;;;;;;;4.50;3.00;;;;;;;;5075119;27;45782;-51
2023/09/29 13:06:50;;;;;;;;;4.00;2.50;;;;;;;;5070826;27;46212;-52
2023/09/29 13:09:15;;;;;;;;;2.00;2.00;;;;;;;;5070307;28;45409;-52
2023/09/29 13:11:44;;;;;;;;;1.00;1.00;;;;;;;;5071587;28;45488;-52
2023/09/29 13:14:09;;;;;;;;;3.00;2.25;;;;;;;;5078174;27;45692;-52
2023/09/29 13:16:34;;;;;;;;;2.00;2.00;;;;;;;;5074187;28;47711;-52
2023/09/29 13:18:59;;;;;;;;;6.00;3.00;;;;;;;;5071586;28;45899;-50
2023/09/29 13:21:25;;;;;;;;;3.50;1.75;;;;;;;;5069236;28;46677;-50
2023/09/29 13:23:50;;;;;;;;;4.25;3.00;;;;;;;;5074463;28;45439;-53
2023/09/29 13:26:15;;;;;;;;;2.50;2.50;;;;;;;;5074316;28;45676;-53
2023/09/29 13:28:40;;;;;;;;;4.00;2.25;;;;;;;;5076223;28;45328;-53
2023/09/29 13:31:05;;;;;;;;;3.25;2.00;;;;;;;;5073856;28;45457;-52
2023/09/29 13:33:31;;;;;;;;;1.00;1.00;;;;;;;;5077465;28;45457;-52
2023/09/29 13:35:56;;;;;;;;;2.50;1.25;;;;;;;;5071932;27;45417;-52
2023/09/29 13:38:21;;;;;;;;;1.00;1.00;;;;;;;;5078211;27;45393;-52
2023/09/29 13:40:51;;;;;;;;;3.25;3.25;;;;;;;;5081433;27;45424;-52
2023/09/29 13:43:16;;;;;;;;;2.00;2.00;;;;;;;;5073450;27;45641;-49
2023/09/29 13:45:41;;;;;;;;;2.00;2.00;;;;;;;;5079601;27;45649;-50
2023/09/29 13:48:06;;;;;;;;;2.00;2.00;;;;;;;;5074116;27;45577;-51
2023/09/29 13:50:31;;;;;;;;;2.75;1.75;;;;;;;;5077622;27;45439;-51
2023/09/29 13:52:57;;;;;;;;;4.50;3.00;;;;;;;;5076369;27;45326;-50
2023/09/29 13:55:22;;;;;;;;;1.50;1.50;;;;;;;;5076478;27;45472;-49
2023/09/29 13:57:47;;;;;;;;;2.00;2.00;;;;;;;;5078576;28;45526;-49
2023/09/29 14:00:13;;;;;;;;;5.00;3.00;;;;;;;;5075526;27;45463;-51
2023/09/29 14:02:38;;;;;;;;;2.00;1.25;;;;;;;;5077988;28;45661;-52
2023/09/29 14:05:05;;;;;;;;;1.25;1.25;;;;;;;;5071345;27;46795;-52
2023/09/29 14:07:30;;;;;;;;;2.00;2.00;;;;;;;;5074755;28;45731;-51
2023/09/29 14:09:55;;;;;;;;;4.00;3.00;;;;;;;;5079313;27;45364;-50
2023/09/29 14:12:20;;;;;;;;;3.00;2.50;;;;;;;;5077414;28;45544;-51
2023/09/29 14:14:47;;;;;;;;;3.00;3.00;;;;;;;;5079840;27;45579;-49
2023/09/29 14:17:12;;;;;;;;;4.00;2.00;;;;;;;;5076370;28;45317;-51
2023/09/29 14:19:37;;;;;;;;;2.00;2.00;;;;;;;;5070936;27;45413;-50
2023/09/29 14:22:03;;;;;;;;;2.00;2.00;;;;;;;;5078004;28;45422;-50
2023/09/29 14:24:28;;;;;;;;;2.50;0.75;;;;;;;;5078158;27;45534;-48
2023/09/29 14:26:53;;;;;;;;;1.75;1.75;;;;;;;;5075843;28;45764;-51
2023/09/29 14:29:18;;;;;;;;;5.00;2.00;;;;;;;;5077575;27;45473;-51
2023/09/29 14:31:44;;;;;;;;;3.00;3.00;;;;;;;;5076451;28;45579;-49
2023/09/29 14:34:14;;;;;;;;;2.50;0.75;;;;;;;;5078155;27;46287;-55
2023/09/29 14:36:39;;;;;;;;;2.75;2.00;;;;;;;;5076869;28;45683;-51